Time;durP1;ratioP1;P1;durP2;ratioP2;P2;SDS_P1;SDS_P2;PMS_P1;PMS_P2;Temp;Humidity;BMP_temperature;BMP_pressure;BME280_temperature;BME280_humidity;BME280_pressure;Samples;Min_cycle;Max_cycle;Signal;HPM_P1;HPM_P2
2021/03/21 00:02:07;;;;;;;3.67;1.49;;;;;;;3.13;65.17;100148.84;2024446;76;20354;-68
2021/03/21 00:05:09;;;;;;;1.74;1.42;;;;;;;3.11;65.81;100142.78;2021031;80;20886;-68
2021/03/21 00:08:24;;;;;;;1.81;1.59;;;;;;;3.09;66.59;100141.84;2022292;80;20714;-68
2021/03/21 00:11:26;;;;;;;2.14;1.79;;;;;;;3.07;66.29;100139.22;2022226;80;20304;-68
2021/03/21 00:14:30;;;;;;;3.74;1.95;;;;;;;3.06;65.29;100140.03;2022023;80;20847;-68
2021/03/21 00:17:32;;;;;;;2.05;1.85;;;;;;;3.09;65.38;100147.84;2030123;77;20411;-68
2021/03/21 00:20:36;;;;;;;3.21;1.60;;;;;;;3.08;66.10;100140.97;2028559;79;20878;-68
2021/03/21 00:23:38;;;;;;;1.88;1.60;;;;;;;3.08;66.69;100140.97;2032782;79;20348;-68
2021/03/21 00:26:40;;;;;;;3.14;1.70;;;;;;;3.08;66.94;100135.84;2032407;79;20322;-68
2021/03/21 00:29:42;;;;;;;3.28;1.48;;;;;;;3.08;66.22;100127.28;2032641;79;20332;-68
2021/03/21 00:35:48;;;;;;;2.28;1.71;;;;;;;3.10;66.35;100130.75;2023577;79;20490;-75
2021/03/21 00:38:52;;;;;;;2.72;1.74;;;;;;;3.08;66.86;100133.28;2022487;80;20333;-74
2021/03/21 00:41:54;;;;;;;3.13;1.83;;;;;;;3.09;66.86;100124.75;2021685;80;21119;-74
2021/03/21 00:44:55;;;;;;;4.01;2.13;;;;;;;3.07;65.29;100130.66;2021211;80;20377;-74
2021/03/21 00:47:57;;;;;;;3.06;1.76;;;;;;;3.06;65.36;100119.53;2020759;78;21359;-74
2021/03/21 00:50:59;;;;;;;3.79;1.96;;;;;;;3.05;66.36;100120.31;2021390;80;20327;-74
2021/03/21 00:54:01;;;;;;;3.03;1.88;;;;;;;3.06;67.63;100118.66;2021724;80;20361;-74
2021/03/21 00:57:03;;;;;;;3.61;2.19;;;;;;;3.08;67.61;100112.75;2021590;80;20577;-74
2021/03/21 01:00:11;;;;;;;2.04;1.60;;;;;;;3.04;65.88;100114.31;2017701;80;20338;-75
2021/03/21 01:03:13;;;;;;;3.65;1.86;;;;;;;3.03;65.59;100116.81;2020842;78;20652;-74
2021/03/21 01:06:15;;;;;;;2.40;1.76;;;;;;;3.02;65.88;100109.94;2022006;80;21174;-74
2021/03/21 01:09:17;;;;;;;2.39;1.89;;;;;;;3.01;67.22;100101.38;2022175;80;20316;-74
2021/03/21 01:12:19;;;;;;;2.97;2.14;;;;;;;2.98;67.58;100101.25;2021137;80;20326;-74
2021/03/21 01:15:22;;;;;;;3.49;1.95;;;;;;;2.92;66.92;100095.03;2020613;78;26480;-74
2021/03/21 01:18:28;;;;;;;2.70;1.85;;;;;;;2.88;66.30;100081.25;2022056;80;20708;-75
2021/03/21 01:21:33;;;;;;;2.89;2.22;;;;;;;2.84;65.75;100078.47;2022049;80;20373;-75
2021/03/21 01:24:35;;;;;;;2.92;2.09;;;;;;;2.81;65.82;100076.69;2022441;80;20369;-75
2021/03/21 01:27:37;;;;;;;2.54;2.34;;;;;;;2.77;65.88;100063.69;2022096;80;20337;-75
2021/03/21 01:30:38;;;;;;;5.04;2.24;;;;;;;2.76;65.47;100067.94;2021741;78;22347;-74
2021/03/21 01:33:40;;;;;;;3.13;2.00;;;;;;;2.75;64.84;100067.91;2021312;80;20403;-75
2021/03/21 01:36:43;;;;;;;2.46;2.26;;;;;;;2.72;64.74;100059.28;2022423;80;20843;-75
2021/03/21 01:39:46;;;;;;;2.11;1.73;;;;;;;2.71;64.48;100054.97;2022077;80;20945;-75
2021/03/21 01:42:48;;;;;;;2.33;2.00;;;;;;;2.73;65.48;100058.47;2021548;80;20304;-74
2021/03/21 01:45:50;;;;;;;2.74;1.95;;;;;;;2.76;66.09;100050.00;2021019;80;20953;-75
2021/03/21 01:48:55;;;;;;;2.83;1.94;;;;;;;2.77;66.68;100043.19;2021883;80;20316;-74
2021/03/21 01:51:59;;;;;;;4.32;2.05;;;;;;;2.76;67.83;100042.31;2022108;80;20347;-74
2021/03/21 01:55:04;;;;;;;2.84;2.10;;;;;;;2.78;68.04;100042.34;2021901;80;20381;-75
2021/03/21 01:58:06;;;;;;;2.54;1.91;;;;;;;2.80;67.71;100033.91;2022389;80;21100;-75
2021/03/21 02:01:19;;;;;;;3.06;2.09;;;;;;;2.85;68.05;100034.06;2020424;78;21307;-74
2021/03/21 02:04:21;;;;;;;2.35;1.96;;;;;;;2.81;67.67;100035.66;2021933;80;20985;-74
2021/03/21 02:07:46;;;;;;;2.89;2.25;;;;;;;2.83;66.07;100028.88;2021208;80;20324;-74
2021/03/21 02:11:08;;;;;;;3.31;1.69;;;;;;;2.83;66.31;100022.88;2022177;80;20816;-75
2021/03/21 02:14:51;;;;;;;2.31;2.00;;;;;;;2.83;66.43;100028.88;2020845;80;20457;-74
2021/03/21 02:18:07;;;;;;;3.19;2.35;;;;;;;2.85;66.45;100019.53;2014114;78;20692;-74
2021/03/21 02:21:40;;;;;;;3.16;2.06;;;;;;;2.85;65.95;100013.53;2016271;80;20309;-75
2021/03/21 02:24:51;;;;;;;5.49;2.51;;;;;;;2.84;65.25;100016.94;2016211;80;20313;-75
2021/03/21 02:28:02;;;;;;;4.29;2.41;;;;;;;2.86;65.28;100010.16;2016898;80;20336;-74
2021/03/21 02:31:10;;;;;;;3.53;2.31;;;;;;;2.89;64.83;100005.16;2017056;78;21309;-75
2021/03/21 02:34:20;;;;;;;3.84;1.90;;;;;;;2.89;64.54;100000.91;2022332;80;21161;-74
2021/03/21 02:37:31;;;;;;;1.90;1.66;;;;;;;2.87;65.18;100002.56;2022466;80;20320;-75
2021/03/21 02:40:52;;;;;;;3.74;2.03;;;;;;;2.90;64.91;99996.66;2022533;80;20308;-75
2021/03/21 02:44:06;;;;;;;3.21;2.06;;;;;;;2.90;65.28;99991.53;2023026;80;20388;-74
2021/03/21 02:47:16;;;;;;;5.29;1.99;;;;;;;2.88;65.93;100003.44;2021784;80;22108;-75
2021/03/21 02:50:32;;;;;;;4.86;2.39;;;;;;;2.89;67.02;100006.03;2022235;80;20337;-75
2021/03/21 02:53:46;;;;;;;2.17;1.80;;;;;;;2.87;67.99;100007.69;2021910;80;20404;-74
2021/03/21 02:56:54;;;;;;;2.81;1.96;;;;;;;2.85;67.71;100005.84;2022344;80;20345;-74
2021/03/21 02:59:59;;;;;;;2.81;2.00;;;;;;;2.87;67.29;100001.66;2022647;80;20357;-74
2021/03/21 03:03:05;;;;;;;3.19;2.01;;;;;;;2.85;66.62;100009.28;2017598;77;20421;-74
2021/03/21 03:06:11;;;;;;;4.22;2.04;;;;;;;2.82;66.41;100005.75;2019015;80;20304;-75
2021/03/21 03:09:25;;;;;;;3.53;2.08;;;;;;;2.83;66.28;100016.06;2019103;80;20325;-74
2021/03/21 03:12:32;;;;;;;2.19;1.69;;;;;;;2.86;65.89;100008.47;2018617;80;20343;-74
2021/03/21 03:15:35;;;;;;;2.39;1.95;;;;;;;2.85;65.66;100006.72;2018165;77;21240;-74
2021/03/21 03:18:49;;;;;;;3.06;1.90;;;;;;;2.80;65.97;100002.25;2024174;80;20312;-75
2021/03/21 03:22:20;;;;;;;3.49;2.06;;;;;;;2.76;65.98;100002.97;2024365;80;20316;-74
2021/03/21 03:25:43;;;;;;;3.39;2.17;;;;;;;2.72;65.67;100012.25;2022574;80;20341;-74
2021/03/21 03:29:02;;;;;;;3.13;2.47;;;;;;;2.71;65.50;99995.13;2024253;80;20312;-74
2021/03/21 03:32:09;;;;;;;3.83;2.06;;;;;;;2.73;65.74;99993.47;2022968;77;20886;-74
2021/03/21 03:35:14;;;;;;;3.92;2.30;;;;;;;2.72;66.06;99979.78;2023242;80;20319;-74
2021/03/21 03:38:18;;;;;;;2.16;1.83;;;;;;;2.72;66.43;99974.66;2023530;80;20721;-75
2021/03/21 03:41:35;;;;;;;2.71;2.39;;;;;;;2.68;66.57;99974.47;2023345;80;20347;-75
2021/03/21 03:45:03;;;;;;;2.28;1.80;;;;;;;2.63;67.46;99969.19;2022876;80;20316;-74
2021/03/21 03:48:34;;;;;;;3.97;1.46;;;;;;;2.55;67.66;99959.50;2018621;78;22428;-75
2021/03/21 03:52:00;;;;;;;3.13;1.70;;;;;;;2.41;66.92;99947.03;2018680;80;20313;-75
2021/03/21 03:55:23;;;;;;;1.52;1.41;;;;;;;2.26;67.02;99940.47;2018279;80;20349;-74
2021/03/21 03:58:51;;;;;;;2.05;1.26;;;;;;;2.17;67.46;99943.56;2018668;80;20770;-75
2021/03/21 04:02:02;;;;;;;2.56;1.91;;;;;;;2.07;67.93;99942.31;2019390;77;20498;-74
2021/03/21 04:05:11;;;;;;;2.66;1.74;;;;;;;1.97;68.57;99929.97;2022564;80;20389;-74
2021/03/21 04:08:33;;;;;;;2.61;1.69;;;;;;;1.84;68.82;99924.34;2022476;80;20357;-75
2021/03/21 04:11:53;;;;;;;2.41;1.92;;;;;;;1.73;68.91;99911.13;2022156;80;20210;-75
2021/03/21 04:15:05;;;;;;;3.65;1.96;;;;;;;1.61;69.31;99914.06;2022251;80;21038;-75
2021/03/21 04:18:13;;;;;;;3.76;1.67;;;;;;;1.50;69.55;99913.66;2016979;77;20995;-75
2021/03/21 04:21:20;;;;;;;2.34;2.01;;;;;;;1.37;69.19;99926.75;2016947;80;20495;-75
2021/03/21 04:24:36;;;;;;;2.85;1.99;;;;;;;1.28;69.24;99936.63;2017100;80;20349;-75
2021/03/21 04:27:46;;;;;;;3.61;1.90;;;;;;;1.18;69.74;99940.47;2017372;80;20343;-75
2021/03/21 04:30:52;;;;;;;2.40;1.85;;;;;;;1.10;70.04;99938.41;2017555;78;22205;-74
2021/03/21 04:33:57;;;;;;;2.05;1.85;;;;;;;0.99;70.33;99934.53;2021575;80;20328;-75
2021/03/21 04:37:01;;;;;;;4.20;2.17;;;;;;;0.88;70.65;99946.84;2022365;80;20320;-75
2021/03/21 04:40:04;;;;;;;2.85;2.06;;;;;;;0.78;71.51;99955.81;2022083;80;20320;-75
2021/03/21 04:43:10;;;;;;;2.92;1.99;;;;;;;0.73;72.17;99949.63;2022819;80;20380;-75
2021/03/21 04:46:24;;;;;;;2.67;2.20;;;;;;;0.75;72.51;99947.13;2021280;78;22571;-75
2021/03/21 04:49:26;;;;;;;3.01;1.75;;;;;;;0.78;72.69;99943.03;2022374;80;20457;-75
2021/03/21 04:52:47;;;;;;;3.21;2.30;;;;;;;0.83;72.57;99946.66;2022620;80;20862;-75
2021/03/21 04:56:01;;;;;;;2.97;1.92;;;;;;;0.87;73.02;99950.22;2021925;80;20319;-74
2021/03/21 04:59:13;;;;;;;1.96;1.69;;;;;;;0.95;73.48;99948.88;2021917;80;20333;-74
2021/03/21 05:02:28;;;;;;;4.07;2.16;;;;;;;0.98;73.88;99943.88;2021315;77;21118;-74
2021/03/21 05:05:36;;;;;;;4.04;2.26;;;;;;;1.06;73.61;99933.97;2021876;80;21136;-75
2021/03/21 05:08:51;;;;;;;3.11;2.10;;;;;;;1.11;73.24;99941.03;2025552;80;20321;-75
2021/03/21 05:11:58;;;;;;;3.89;2.20;;;;;;;1.18;72.91;99944.72;2021724;80;20792;-75
2021/03/21 05:15:26;;;;;;;3.33;2.17;;;;;;;1.23;72.30;99939.78;2021716;80;20308;-73
2021/03/21 05:18:36;;;;;;;3.48;2.36;;;;;;;1.26;72.25;99937.34;2022060;80;20323;-75
2021/03/21 05:21:43;;;;;;;;;;;;;;;1.26;72.52;99943.38;2022100;80;20851;-74
2021/03/21 05:25:10;;;;;;;3.34;1.83;;;;;;;1.27;72.99;99952.78;2021672;80;20542;-74
2021/03/21 05:28:37;;;;;;;2.61;1.74;;;;;;;1.31;72.90;99946.09;2022540;80;20348;-74
2021/03/21 05:31:39;;;;;;;3.16;2.17;;;;;;;1.36;72.68;99958.25;2021756;77;20474;-74
2021/03/21 05:34:42;;;;;;;2.94;2.36;;;;;;;1.39;72.93;99954.94;2021972;80;20369;-74
2021/03/21 05:38:04;;;;;;;3.65;2.15;;;;;;;1.43;72.89;99967.94;2022462;80;20312;-74
2021/03/21 05:41:21;;;;;;;4.89;2.13;;;;;;;1.47;72.73;99962.16;2021491;80;20809;-75
2021/03/21 05:44:44;;;;;;;2.89;2.20;;;;;;;1.50;72.23;99948.59;2021871;80;20708;-74
2021/03/21 05:48:11;;;;;;;2.78;2.13;;;;;;;1.55;71.77;99957.31;2020784;78;21081;-73
2021/03/21 05:51:55;;;;;;;2.83;2.09;;;;;;;1.63;71.29;99955.09;2021979;80;20308;-73
2021/03/21 05:55:05;;;;;;;2.91;1.91;;;;;;;1.68;71.85;99956.16;2021125;80;20312;-73
2021/03/21 05:58:31;;;;;;;3.03;2.38;;;;;;;1.73;71.68;99931.59;2021836;80;20357;-74
2021/03/21 06:02:01;;;;;;;4.51;2.30;;;;;;;1.72;72.37;99930.72;2020350;77;28346;-74
2021/03/21 06:05:12;;;;;;;5.76;1.92;;;;;;;1.77;72.97;99920.66;2025384;80;20372;-73
2021/03/21 06:08:52;;;;;;;6.68;2.40;;;;;;;1.74;73.51;99928.22;2022337;80;20365;-73
2021/03/21 06:12:09;;;;;;;5.40;2.29;;;;;;;1.78;73.12;99930.06;2022870;80;20353;-73
2021/03/21 06:15:48;;;;;;;4.35;2.50;;;;;;;1.86;71.93;99935.50;2021395;80;21126;-73
2021/03/21 06:19:01;;;;;;;3.83;2.50;;;;;;;1.96;70.93;99929.91;2022306;80;20388;-72
2021/03/21 06:22:12;;;;;;;3.49;2.69;;;;;;;2.01;71.26;99933.56;2022079;80;20194;-72
2021/03/21 06:25:36;;;;;;;5.36;2.63;;;;;;;2.07;71.79;99936.34;2022033;80;20770;-72
2021/03/21 06:29:07;;;;;;;5.20;2.61;;;;;;;2.12;72.71;99932.25;2022756;80;20361;-72
2021/03/21 06:32:31;;;;;;;6.04;2.40;;;;;;;2.18;73.08;99941.88;2019851;77;21073;-72
2021/03/21 06:35:56;;;;;;;3.54;3.06;;;;;;;2.23;73.15;99940.34;2020067;80;20331;-73
2021/03/21 06:39:31;;;;;;;3.33;2.25;;;;;;;2.29;72.87;99945.69;2019273;80;20343;-72
2021/03/21 06:43:04;;;;;;;3.45;2.03;;;;;;;2.35;73.42;99938.25;2020137;80;20324;-72
2021/03/21 06:46:18;;;;;;;3.83;2.14;;;;;;;2.41;73.30;99947.03;2019365;77;20369;-72
2021/03/21 06:49:39;;;;;;;3.67;2.45;;;;;;;2.48;72.66;99942.13;2020022;80;20311;-72
2021/03/21 06:52:59;;;;;;;3.19;2.38;;;;;;;2.56;72.65;99941.59;2020322;80;20373;-72
2021/03/21 06:56:18;;;;;;;3.97;2.42;;;;;;;2.64;73.24;99932.47;2019962;80;20390;-72
2021/03/21 06:59:49;;;;;;;4.21;2.98;;;;;;;2.73;72.51;99940.50;2019027;80;20312;-79
2021/03/21 07:03:20;;;;;;;4.57;3.21;;;;;;;2.82;71.41;99950.22;2019508;77;28613;-77
2021/03/21 07:06:59;;;;;;;5.29;4.00;;;;;;;2.91;71.04;99937.72;2018625;80;20308;-74
2021/03/21 07:10:22;;;;;;;4.59;3.81;;;;;;;3.00;70.55;99939.72;2020772;80;20341;-74
2021/03/21 07:13:55;;;;;;;4.53;3.53;;;;;;;3.10;69.97;99935.78;2019552;80;20191;-73
2021/03/21 07:17:09;;;;;;;8.24;4.74;;;;;;;3.17;69.44;99941.16;2019839;78;23412;-74
2021/03/21 07:20:45;;;;;;;6.50;4.56;;;;;;;3.25;69.31;99931.19;2021808;80;20334;-76
2021/03/21 07:24:31;;;;;;;6.43;4.93;;;;;;;3.34;68.49;99932.34;2022210;80;20308;-76
2021/03/21 07:27:48;;;;;;;8.81;5.36;;;;;;;3.43;68.18;99923.22;2104878;69;20346;-77
2021/03/21 07:31:19;;;;;;;6.74;5.10;;;;;;;3.52;68.10;99913.22;2029452;79;21559;-76
2021/03/21 07:34:49;;;;;;;7.21;5.59;;;;;;;3.63;67.88;99904.19;2030942;79;20470;-77
2021/03/21 07:37:51;;;;;;;;;;;;;;;3.76;67.86;99907.97;2031490;79;20872;-79
2021/03/21 07:41:05;;;;;;;7.45;5.44;;;;;;;3.88;67.80;99903.22;2030258;79;20103;-75
2021/03/21 07:44:30;;;;;;;9.56;6.38;;;;;;;4.01;67.48;99896.78;2030180;79;20681;-76
2021/03/21 07:47:46;;;;;;;9.81;6.72;;;;;;;4.09;67.24;99896.16;2029349;77;20336;-76
2021/03/21 07:51:26;;;;;;;8.46;6.34;;;;;;;4.21;67.54;99886.25;2030966;79;20375;-76
2021/03/21 07:54:36;;;;;;;11.96;6.85;;;;;;;4.29;67.61;99895.84;2030658;79;20353;-74
2021/03/21 07:57:51;;;;;;;8.20;6.74;;;;;;;4.32;68.22;99894.28;2030466;79;20158;-76
2021/03/21 08:00:54;;;;;;;8.66;6.68;;;;;;;4.37;68.88;99889.25;2038179;77;23420;-77
2021/03/21 08:04:06;;;;;;;9.43;7.59;;;;;;;4.40;69.57;99897.91;2030766;79;20813;-76
2021/03/21 08:07:18;;;;;;;9.68;7.71;;;;;;;4.40;69.62;99897.91;2030187;79;20330;-78
2021/03/21 08:10:31;;;;;;;8.52;6.94;;;;;;;4.41;70.02;99896.22;2031905;79;20309;-75
2021/03/21 08:13:58;;;;;;;9.15;7.56;;;;;;;4.42;70.82;99908.25;2031155;79;20367;-76
2021/03/21 08:17:04;;;;;;;9.48;7.65;;;;;;;4.45;71.05;99904.06;2030723;76;22420;-76
2021/03/21 08:20:18;;;;;;;8.09;6.86;;;;;;;4.51;71.28;99900.81;2035440;79;20325;-78
2021/03/21 08:23:21;;;;;;;8.50;7.16;;;;;;;4.57;71.55;99894.94;2030393;79;20363;-75
2021/03/21 08:26:28;;;;;;;9.51;7.38;;;;;;;4.61;71.70;99897.63;2029936;79;20343;-74
2021/03/21 08:33:22;;;;;;;9.09;7.04;;;;;;;4.63;71.77;99901.13;2008376;70;20342;-82
2021/03/21 08:36:27;;;;;;;9.31;7.32;;;;;;;4.66;72.08;99893.47;1993049;81;20346;-79
2021/03/21 08:39:40;;;;;;;10.64;8.55;;;;;;;4.73;71.73;99895.41;1989321;81;20392;-78
2021/03/21 08:42:45;;;;;;;8.25;6.82;;;;;;;4.76;71.89;99877.47;1989605;81;20829;-77
2021/03/21 08:46:04;;;;;;;8.04;6.40;;;;;;;4.80;72.03;99881.88;1987679;79;21865;-76
2021/03/21 08:49:19;;;;;;;9.60;6.89;;;;;;;4.81;72.23;99891.31;1991963;81;20478;-77
2021/03/21 08:52:42;;;;;;;8.31;6.40;;;;;;;4.88;72.44;99899.22;1989517;81;20334;-76
2021/03/21 08:55:43;;;;;;;8.40;5.88;;;;;;;4.93;72.38;99902.78;1988914;81;20339;-77
2021/03/21 08:58:47;;;;;;;7.24;6.22;;;;;;;4.99;72.51;99908.09;1988995;81;20342;-76
2021/03/21 09:02:06;;;;;;;7.49;6.39;;;;;;;5.03;72.28;99887.63;1988005;78;21355;-76
2021/03/21 09:05:14;;;;;;;10.11;6.71;;;;;;;5.11;72.08;99886.13;1987330;81;20319;-76
2021/03/21 09:08:23;;;;;;;9.29;6.51;;;;;;;5.16;72.22;99891.38;1987584;81;20233;-76
2021/03/21 09:11:35;;;;;;;7.39;6.47;;;;;;;5.18;72.33;99888.84;1988799;81;20807;-76
2021/03/21 09:14:37;;;;;;;8.56;6.46;;;;;;;5.24;72.58;99886.44;1988235;81;20224;-76
2021/03/21 09:17:39;;;;;;;8.93;6.25;;;;;;;5.38;72.66;99890.19;1992503;79;24033;-76
2021/03/21 09:21:05;;;;;;;7.30;6.43;;;;;;;5.55;72.70;99883.75;1993052;81;21316;-77
2021/03/21 09:24:11;;;;;;;7.03;6.14;;;;;;;5.89;72.10;99880.22;1994062;81;20851;-77
2021/03/21 09:27:17;;;;;;;6.88;6.18;;;;;;;6.21;71.25;99886.13;1994021;81;20370;-76
2021/03/21 09:30:30;;;;;;;6.91;5.76;;;;;;;6.48;70.51;99879.78;1992424;78;20665;-76
2021/03/21 09:33:37;;;;;;;6.09;5.26;;;;;;;6.73;70.08;99884.56;1988006;81;20989;-77
2021/03/21 09:36:57;;;;;;;6.71;5.54;;;;;;;6.83;69.19;99876.19;1989324;81;20404;-77
2021/03/21 09:40:25;;;;;;;6.44;5.47;;;;;;;6.89;68.76;99880.56;1988333;81;20486;-77
2021/03/21 09:43:35;;;;;;;6.30;4.61;;;;;;;6.99;68.29;99866.97;1988668;81;20443;-77
2021/03/21 09:47:03;;;;;;;7.00;5.47;;;;;;;7.16;67.76;99852.63;1990784;78;21194;-78
2021/03/21 09:50:21;;;;;;;5.28;4.78;;;;;;;7.48;67.19;99847.13;1993215;81;20301;-77
2021/03/21 09:53:47;;;;;;;5.13;4.64;;;;;;;7.80;66.03;99842.44;1993639;81;20796;-77
2021/03/21 09:57:25;;;;;;;5.56;4.86;;;;;;;8.09;66.12;99855.75;1993930;81;20343;-77
2021/03/21 10:00:33;;;;;;;5.15;4.65;;;;;;;8.24;66.09;99865.41;1992036;78;22376;-78
2021/03/21 10:03:37;;;;;;;5.47;4.24;;;;;;;8.26;64.59;99869.78;1989546;81;20480;-77
2021/03/21 10:06:41;;;;;;;6.56;5.91;;;;;;;8.07;64.40;99871.22;1993433;81;20215;-79
2021/03/21 10:09:45;;;;;;;5.25;4.64;;;;;;;7.94;64.18;99871.94;1993602;81;20342;-77
2021/03/21 10:12:46;;;;;;;5.09;4.59;;;;;;;7.79;64.68;99875.16;1989134;81;20204;-77
2021/03/21 10:16:10;;;;;;;5.18;4.68;;;;;;;7.88;65.12;99884.75;1988224;78;22588;-77
2021/03/21 10:19:12;;;;;;;6.06;4.94;;;;;;;7.99;65.57;99896.13;1988903;81;20348;-77
2021/03/21 10:22:16;;;;;;;6.57;4.88;;;;;;;8.02;65.61;99893.59;1989489;81;20187;-78
2021/03/21 10:25:26;;;;;;;5.16;4.66;;;;;;;7.99;65.00;99874.56;1988415;81;20361;-78
2021/03/21 10:28:34;;;;;;;6.88;5.36;;;;;;;7.95;64.83;99855.56;1988375;81;20340;-78
2021/03/21 10:31:39;;;;;;;5.88;5.30;;;;;;;8.00;65.17;99869.41;1990148;78;21356;-77
2021/03/21 10:34:42;;;;;;;7.09;5.64;;;;;;;8.02;65.30;99875.47;1993580;81;20833;-77
2021/03/21 10:37:44;;;;;;;7.41;6.36;;;;;;;8.05;64.97;99852.25;1993295;81;20360;-76
2021/03/21 10:40:46;;;;;;;5.04;4.54;;;;;;;8.10;64.68;99860.94;1993644;81;20423;-78
2021/03/21 10:43:58;;;;;;;6.39;4.91;;;;;;;8.24;65.06;99858.50;1993978;81;20196;-77
2021/03/21 10:47:30;;;;;;;7.69;6.20;;;;;;;8.48;65.01;99855.41;1989691;78;29945;-77
2021/03/21 10:50:32;;;;;;;5.49;4.78;;;;;;;8.63;63.97;99844.34;1988450;81;21278;-77
2021/03/21 10:54:01;;;;;;;5.30;4.80;;;;;;;8.88;63.17;99843.75;1989726;81;20192;-77
2021/03/21 10:57:24;;;;;;;5.60;4.96;;;;;;;8.99;62.19;99844.72;1987180;81;20205;-76
2021/03/21 11:00:33;;;;;;;5.93;5.31;;;;;;;9.09;62.42;99823.22;1989531;78;20179;-77
2021/03/21 11:03:35;;;;;;;4.97;4.49;;;;;;;9.26;61.98;99827.66;1994683;81;20617;-77
2021/03/21 11:06:50;;;;;;;5.36;4.85;;;;;;;9.52;61.58;99820.97;1995108;81;20616;-78
2021/03/21 11:10:07;;;;;;;6.11;4.72;;;;;;;9.70;60.40;99812.44;1994191;81;20521;-76
2021/03/21 11:13:12;;;;;;;5.38;4.88;;;;;;;9.90;60.15;99807.34;1994358;81;20182;-76
2021/03/21 11:16:17;;;;;;;5.46;4.74;;;;;;;10.01;59.77;99810.84;1991543;78;23219;-77
2021/03/21 11:19:20;;;;;;;5.03;4.51;;;;;;;10.05;59.55;99803.94;1990093;81;20221;-77
2021/03/21 11:22:33;;;;;;;10.05;7.71;;;;;;;9.90;59.44;99807.34;1989913;81;20171;-76
2021/03/21 11:25:41;;;;;;;6.64;5.90;;;;;;;9.85;59.85;99809.91;1989851;81;20228;-77
2021/03/21 11:28:45;;;;;;;5.69;4.28;;;;;;;9.82;59.55;99809.88;1989337;81;20217;-76
2021/03/21 11:31:53;;;;;;;4.89;4.38;;;;;;;9.97;60.57;99812.56;1991036;81;21811;-77
2021/03/21 11:34:56;;;;;;;;;;;;;;;10.26;59.64;99817.06;1995644;81;20217;-77
2021/03/21 11:37:59;;;;;;;4.91;3.60;;;;;;;10.46;58.91;99822.31;1995475;81;20058;-77
2021/03/21 11:41:01;;;;;;;3.75;3.45;;;;;;;10.66;58.55;99827.53;1995277;81;20212;-77
2021/03/21 11:44:31;;;;;;;4.56;4.16;;;;;;;10.57;56.92;99834.44;1993720;81;21084;-77
2021/03/21 11:47:33;;;;;;;4.80;4.10;;;;;;;10.59;57.33;99822.34;1990369;79;23141;-77
2021/03/21 11:50:43;;;;;;;4.74;4.32;;;;;;;10.65;57.21;99818.03;1989664;81;20235;-77
2021/03/21 11:53:47;;;;;;;4.71;4.31;;;;;;;10.58;56.13;99824.91;1989641;80;20222;-77
2021/03/21 11:57:02;;;;;;;4.21;3.81;;;;;;;10.32;56.55;99809.28;1989968;81;20187;-77
2021/03/21 12:00:20;;;;;;;3.50;3.20;;;;;;;10.31;57.65;99809.28;1988884;81;20264;-78
2021/03/21 12:03:23;;;;;;;3.76;3.42;;;;;;;10.27;58.78;99805.81;1996872;81;21387;-78
2021/03/21 12:06:47;;;;;;;3.66;3.38;;;;;;;10.27;58.39;99804.06;1994773;81;20206;-76
2021/03/21 12:09:50;;;;;;;4.24;3.83;;;;;;;10.05;58.83;99794.41;1994222;81;20695;-77
2021/03/21 12:12:52;;;;;;;3.80;3.08;;;;;;;9.98;58.52;99784.88;1994565;81;20660;-77
2021/03/21 12:15:55;;;;;;;4.20;3.65;;;;;;;9.98;59.44;99783.16;1993671;78;20941;-77
2021/03/21 12:18:57;;;;;;;3.81;3.41;;;;;;;9.94;59.40;99784.00;1994244;81;20295;-77
2021/03/21 12:22:24;;;;;;;3.95;3.59;;;;;;;9.95;60.20;99777.09;1994530;81;20193;-76
2021/03/21 12:25:36;;;;;;;4.59;3.83;;;;;;;10.02;60.11;99776.25;1993807;81;20171;-75
2021/03/21 12:28:47;;;;;;;3.55;3.26;;;;;;;9.96;59.43;99776.25;1993499;81;21081;-75
2021/03/21 12:31:51;;;;;;;3.24;2.92;;;;;;;10.02;60.06;99776.25;1989468;79;20198;-77
2021/03/21 12:34:53;;;;;;;2.63;2.42;;;;;;;10.11;59.04;99771.13;1989137;81;20639;-75
2021/03/21 12:38:01;;;;;;;3.97;2.83;;;;;;;10.27;57.21;99774.66;1988521;81;20564;-76
2021/03/21 12:41:34;;;;;;;3.46;2.74;;;;;;;10.56;56.48;99772.97;1989153;81;20199;-76
2021/03/21 12:44:37;;;;;;;3.41;2.49;;;;;;;10.86;55.53;99758.31;1989411;81;20206;-76
2021/03/21 12:48:02;;;;;;;3.31;2.51;;;;;;;10.88;53.73;99760.03;1987878;79;21888;-75
2021/03/21 12:51:15;;;;;;;2.86;2.15;;;;;;;10.98;53.29;99747.94;1988930;81;21382;-77
2021/03/21 12:54:17;;;;;;;2.85;2.04;;;;;;;11.30;53.58;99742.66;1988971;81;20271;-78
2021/03/21 12:57:20;;;;;;;3.42;2.40;;;;;;;11.52;52.71;99747.84;1989405;81;21181;-76
2021/03/21 13:00:25;;;;;;;2.61;1.98;;;;;;;11.43;50.94;99749.59;1987779;78;20890;-75
2021/03/21 13:03:32;;;;;;;2.59;1.75;;;;;;;11.41;50.60;99753.94;1988608;81;20315;-77
2021/03/21 13:06:35;;;;;;;3.03;2.41;;;;;;;11.23;50.27;99756.56;1989345;81;20202;-76
2021/03/21 13:09:36;;;;;;;2.67;2.47;;;;;;;11.11;50.80;99760.03;1988415;81;20191;-76
2021/03/21 13:12:39;;;;;;;3.71;3.41;;;;;;;10.96;51.32;99741.00;1989076;81;20813;-78
2021/03/21 13:15:42;;;;;;;3.41;3.11;;;;;;;10.98;52.34;99745.31;1989434;78;22943;-76
2021/03/21 13:18:44;;;;;;;4.00;2.38;;;;;;;10.87;52.29;99741.84;1994035;81;20202;-76
2021/03/21 13:21:46;;;;;;;3.04;2.40;;;;;;;10.88;52.52;99743.59;1993381;81;20170;-76
2021/03/21 13:24:47;;;;;;;2.24;1.95;;;;;;;10.92;51.14;99726.25;1994156;81;20166;-77
2021/03/21 13:27:56;;;;;;;2.58;1.92;;;;;;;11.00;51.19;99715.00;1994400;81;20227;-77
2021/03/21 13:30:59;;;;;;;2.22;2.03;;;;;;;11.12;50.18;99716.72;1993578;78;22748;-83
2021/03/21 13:34:01;;;;;;;2.10;1.73;;;;;;;11.33;50.16;99714.09;1993709;81;20300;-79
2021/03/21 13:37:03;;;;;;;2.59;1.95;;;;;;;11.55;49.73;99709.69;1992298;81;20248;-79
2021/03/21 13:40:06;;;;;;;2.28;1.60;;;;;;;11.75;49.18;99707.88;2000821;81;20183;-81
2021/03/21 13:43:10;;;;;;;7.28;6.25;;;;;;;11.92;48.15;99706.97;1992681;81;20201;-76
2021/03/21 13:46:12;;;;;;;2.99;1.89;;;;;;;12.15;48.13;99705.09;1990484;78;20426;-77
2021/03/21 13:49:15;;;;;;;2.90;1.17;;;;;;;12.20;46.12;99695.53;1994003;81;20249;-76
2021/03/21 13:52:16;;;;;;;2.11;1.10;;;;;;;12.27;45.88;99697.22;1994428;81;20186;-76
2021/03/21 13:55:32;;;;;;;2.00;1.90;;;;;;;12.49;44.97;99678.84;1994519;81;20717;-76
2021/03/21 13:58:33;;;;;;;2.04;1.08;;;;;;;12.81;45.07;99676.00;1994460;81;20178;-79
2021/03/21 14:01:35;;;;;;;1.61;0.90;;;;;;;13.07;44.55;99678.34;1995274;79;29483;-79
2021/03/21 14:04:37;;;;;;;1.27;0.65;;;;;;;13.14;43.24;99685.22;1995531;81;20179;-79
2021/03/21 14:07:38;;;;;;;0.98;0.70;;;;;;;12.91;43.04;99675.88;1992175;81;20708;-77
2021/03/21 14:10:40;;;;;;;0.70;0.60;;;;;;;12.60;41.53;99669.22;1990153;81;20573;-76
2021/03/21 14:13:42;;;;;;;1.48;0.88;;;;;;;12.35;42.17;99665.91;1989927;81;20627;-76
2021/03/21 14:16:44;;;;;;;1.80;0.85;;;;;;;12.52;43.71;99669.25;1992537;78;21558;-77
2021/03/21 14:19:46;;;;;;;1.26;0.90;;;;;;;12.46;43.98;99664.13;1994415;81;20221;-76
2021/03/21 14:22:48;;;;;;;1.26;0.88;;;;;;;12.44;44.00;99670.22;1998169;81;20194;-81
2021/03/21 14:25:51;;;;;;;2.92;1.24;;;;;;;12.44;44.22;99659.78;2002070;81;20182;-76
2021/03/21 14:28:52;;;;;;;1.05;0.73;;;;;;;12.29;44.02;99665.97;1995117;81;21533;-76
2021/03/21 14:31:54;;;;;;;2.49;0.70;;;;;;;12.11;42.63;99669.56;1990577;78;23618;-74
2021/03/21 14:34:56;;;;;;;1.66;0.79;;;;;;;11.87;42.84;99673.19;1989955;81;20339;-75
2021/03/21 14:37:57;;;;;;;2.30;1.00;;;;;;;11.75;43.75;99666.25;1990153;81;20179;-76
2021/03/21 14:40:59;;;;;;;2.10;0.80;;;;;;;11.64;43.52;99665.44;1989704;81;20225;-75
2021/03/21 14:44:03;;;;;;;0.90;0.69;;;;;;;11.57;44.52;99662.88;1990049;81;20182;-75
2021/03/21 14:47:05;;;;;;;1.17;0.70;;;;;;;11.57;45.48;99658.53;1993671;78;24327;-76
2021/03/21 14:50:09;;;;;;;1.60;0.79;;;;;;;11.59;45.10;99648.13;1994096;81;20726;-77
2021/03/21 14:53:11;;;;;;;1.56;1.00;;;;;;;11.52;44.71;99655.09;1998937;81;20194;-76
2021/03/21 14:56:13;;;;;;;2.06;1.17;;;;;;;11.62;45.67;99648.09;1996406;81;20227;-80
2021/03/21 14:59:15;;;;;;;1.38;1.00;;;;;;;11.70;46.21;99648.94;1999143;81;20319;-80
2021/03/21 15:02:17;;;;;;;2.10;0.86;;;;;;;11.67;44.77;99642.03;1995087;78;29351;-77
2021/03/21 15:05:21;;;;;;;1.41;0.76;;;;;;;11.66;45.38;99637.66;1995903;81;20227;-76
2021/03/21 15:08:24;;;;;;;2.00;1.09;;;;;;;11.78;45.49;99634.16;1991253;81;20204;-76
2021/03/21 15:11:26;;;;;;;0.70;0.60;;;;;;;11.87;45.15;99639.34;1987949;81;20179;-75
2021/03/21 15:14:27;;;;;;;0.82;0.82;;;;;;;11.77;44.45;99638.50;1990312;81;20179;-75